sensor_id;sensor_type;location;lat;lon;timestamp;pressure;altitude;pressure_sealevel;temperature;humidity
49611;BME280;35515;48.766;9.176;2023-06-22T00:01:57;98346.63;;;23.27;81.37
49611;BME280;35515;48.766;9.176;2023-06-22T00:04:24;98343.16;;;23.11;82.38
49611;BME280;35515;48.766;9.176;2023-06-22T00:06:51;98350.28;;;23.17;82.38
49611;BME280;35515;48.766;9.176;2023-06-22T00:09:19;98350.31;;;23.12;82.56
49611;BME280;35515;48.766;9.176;2023-06-22T00:11:45;98338.78;;;23.05;82.78
49611;BME280;35515;48.766;9.176;2023-06-22T00:14:12;98348.19;;;23.04;82.98
49611;BME280;35515;48.766;9.176;2023-06-22T00:16:38;98352.00;;;23.13;82.21
49611;BME280;35515;48.766;9.176;2023-06-22T00:19:06;98337.56;;;23.16;81.96
49611;BME280;35515;48.766;9.176;2023-06-22T00:21:32;98351.16;;;23.13;82.08
49611;BME280;35515;48.766;9.176;2023-06-22T00:23:59;98362.28;;;23.02;83.02
49611;BME280;35515;48.766;9.176;2023-06-22T00:26:27;98364.28;;;22.97;83.31
49611;BME280;35515;48.766;9.176;2023-06-22T00:28:53;98359.28;;;22.99;83.24
49611;BME280;35515;48.766;9.176;2023-06-22T00:31:20;98357.09;;;22.96;83.11
49611;BME280;35515;48.766;9.176;2023-06-22T00:33:46;98353.31;;;22.86;83.77
49611;BME280;35515;48.766;9.176;2023-06-22T00:36:15;98351.63;;;22.91;83.51
49611;BME280;35515;48.766;9.176;2023-06-22T00:38:43;98348.84;;;22.91;83.73
49611;BME280;35515;48.766;9.176;2023-06-22T00:41:09;98332.38;;;22.80;84.42
49611;BME280;35515;48.766;9.176;2023-06-22T00:43:37;98339.03;;;22.79;85.10
49611;BME280;35515;48.766;9.176;2023-06-22T00:46:04;98345.06;;;22.81;84.52
49611;BME280;35515;48.766;9.176;2023-06-22T00:48:30;98353.06;;;22.83;84.25
49611;BME280;35515;48.766;9.176;2023-06-22T00:50:57;98355.03;;;22.77;84.53
49611;BME280;35515;48.766;9.176;2023-06-22T00:53:23;98351.72;;;22.75;84.57
49611;BME280;35515;48.766;9.176;2023-06-22T00:55:50;98358.94;;;22.71;84.67
49611;BME280;35515;48.766;9.176;2023-06-22T00:58:18;98357.91;;;22.62;85.72
49611;BME280;35515;48.766;9.176;2023-06-22T01:00:48;98372.94;;;22.45;86.90
49611;BME280;35515;48.766;9.176;2023-06-22T01:03:15;98381.16;;;22.56;86.41
49611;BME280;35515;48.766;9.176;2023-06-22T01:05:42;98377.72;;;22.74;85.08
49611;BME280;35515;48.766;9.176;2023-06-22T01:08:29;98394.16;;;22.90;83.89
49611;BME280;35515;48.766;9.176;2023-06-22T01:11:01;98424.31;;;22.86;83.98
49611;BME280;35515;48.766;9.176;2023-06-22T01:13:35;98416.88;;;22.81;84.40
49611;BME280;35515;48.766;9.176;2023-06-22T01:16:10;98398.41;;;22.77;84.70
49611;BME280;35515;48.766;9.176;2023-06-22T01:18:42;98382.06;;;22.80;84.41
49611;BME280;35515;48.766;9.176;2023-06-22T01:21:13;98370.91;;;22.96;83.14
49611;BME280;35515;48.766;9.176;2023-06-22T01:23:50;98375.66;;;22.90;83.70
49611;BME280;35515;48.766;9.176;2023-06-22T01:26:20;98388.66;;;22.84;84.01
49611;BME280;35515;48.766;9.176;2023-06-22T01:28:50;98380.72;;;22.78;84.66
49611;BME280;35515;48.766;9.176;2023-06-22T01:31:21;98358.22;;;22.60;86.09
49611;BME280;35515;48.766;9.176;2023-06-22T01:33:51;98361.72;;;22.71;85.10
49611;BME280;35515;48.766;9.176;2023-06-22T01:36:20;98373.34;;;22.68;85.34
49611;BME280;35515;48.766;9.176;2023-06-22T01:38:47;98376.59;;;22.75;84.93
49611;BME280;35515;48.766;9.176;2023-06-22T01:41:15;98365.38;;;22.61;86.20
49611;BME280;35515;48.766;9.176;2023-06-22T01:43:43;98361.22;;;22.64;85.70
49611;BME280;35515;48.766;9.176;2023-06-22T01:46:12;98364.53;;;22.66;85.39
49611;BME280;35515;48.766;9.176;2023-06-22T01:48:39;98367.81;;;22.68;85.81
49611;BME280;35515;48.766;9.176;2023-06-22T01:51:06;98363.53;;;22.51;86.79
49611;BME280;35515;48.766;9.176;2023-06-22T01:53:32;98359.97;;;22.46;86.98
49611;BME280;35515;48.766;9.176;2023-06-22T01:55:59;98385.09;;;22.44;87.51
49611;BME280;35515;48.766;9.176;2023-06-22T01:58:27;98385.03;;;22.54;86.69
49611;BME280;35515;48.766;9.176;2023-06-22T02:00:58;98383.16;;;22.50;87.05
49611;BME280;35515;48.766;9.176;2023-06-22T02:03:34;98383.31;;;22.64;86.06
49611;BME280;35515;48.766;9.176;2023-06-22T02:06:06;98381.66;;;22.63;85.94
49611;BME280;35515;48.766;9.176;2023-06-22T02:08:37;98395.31;;;22.83;84.40
49611;BME280;35515;48.766;9.176;2023-06-22T02:11:06;98391.38;;;22.90;84.03
49611;BME280;35515;48.766;9.176;2023-06-22T02:13:32;98389.47;;;22.90;83.83
49611;BME280;35515;48.766;9.176;2023-06-22T02:16:00;98388.84;;;22.64;85.57
49611;BME280;35515;48.766;9.176;2023-06-22T02:18:27;98395.75;;;22.61;85.60
49611;BME280;35515;48.766;9.176;2023-06-22T02:20:55;98380.41;;;22.45;86.77
49611;BME280;35515;48.766;9.176;2023-06-22T02:23:21;98382.88;;;22.46;86.74
49611;BME280;35515;48.766;9.176;2023-06-22T02:25:48;98388.72;;;22.40;87.22
49611;BME280;35515;48.766;9.176;2023-06-22T02:28:14;98387.81;;;22.49;86.60
49611;BME280;35515;48.766;9.176;2023-06-22T02:30:41;98374.53;;;22.57;85.92
49611;BME280;35515;48.766;9.176;2023-06-22T02:33:07;98375.88;;;22.59;85.59
49611;BME280;35515;48.766;9.176;2023-06-22T02:35:34;98368.53;;;22.44;87.17
49611;BME280;35515;48.766;9.176;2023-06-22T02:38:03;98369.06;;;22.51;86.69
49611;BME280;35515;48.766;9.176;2023-06-22T02:40:31;98381.16;;;22.56;86.55
49611;BME280;35515;48.766;9.176;2023-06-22T02:42:57;98374.13;;;22.34;87.50
49611;BME280;35515;48.766;9.176;2023-06-22T02:45:27;98355.91;;;22.33;87.76
49611;BME280;35515;48.766;9.176;2023-06-22T02:47:53;98352.56;;;22.41;87.67
49611;BME280;35515;48.766;9.176;2023-06-22T02:50:20;98347.25;;;22.50;86.71
49611;BME280;35515;48.766;9.176;2023-06-22T02:52:46;98350.91;;;22.40;87.73
49611;BME280;35515;48.766;9.176;2023-06-22T02:55:14;98349.50;;;22.43;87.21
49611;BME280;35515;48.766;9.176;2023-06-22T02:57:41;98351.97;;;22.44;87.45
49611;BME280;35515;48.766;9.176;2023-06-22T03:00:10;98353.78;;;22.19;89.11
49611;BME280;35515;48.766;9.176;2023-06-22T03:02:42;98348.47;;;22.28;88.46
49611;BME280;35515;48.766;9.176;2023-06-22T03:05:08;98342.75;;;22.19;88.68
49611;BME280;35515;48.766;9.176;2023-06-22T03:07:39;98340.59;;;22.11;89.35
49611;BME280;35515;48.766;9.176;2023-06-22T03:10:07;98338.31;;;22.18;88.83
49611;BME280;35515;48.766;9.176;2023-06-22T03:12:35;98345.50;;;22.19;88.80
49611;BME280;35515;48.766;9.176;2023-06-22T03:15:03;98341.44;;;22.07;89.60
49611;BME280;35515;48.766;9.176;2023-06-22T03:17:29;98339.47;;;22.07;89.88
49611;BME280;35515;48.766;9.176;2023-06-22T03:19:56;98340.53;;;22.16;89.05
49611;BME280;35515;48.766;9.176;2023-06-22T03:22:22;98338.91;;;22.15;89.24
49611;BME280;35515;48.766;9.176;2023-06-22T03:24:49;98336.16;;;22.15;89.20
49611;BME280;35515;48.766;9.176;2023-06-22T03:27:16;98339.47;;;22.07;90.65
49611;BME280;35515;48.766;9.176;2023-06-22T03:29:44;98338.63;;;22.12;89.76
49611;BME280;35515;48.766;9.176;2023-06-22T03:32:11;98344.38;;;22.20;88.81
49611;BME280;35515;48.766;9.176;2023-06-22T03:34:37;98344.34;;;22.26;88.76
49611;BME280;35515;48.766;9.176;2023-06-22T03:37:04;98338.91;;;22.15;89.21
49611;BME280;35515;48.766;9.176;2023-06-22T03:39:31;98338.69;;;22.01;90.41
49611;BME280;35515;48.766;9.176;2023-06-22T03:41:57;98338.16;;;21.99;90.38
49611;BME280;35515;48.766;9.176;2023-06-22T03:44:24;98337.03;;;22.00;90.12
49611;BME280;35515;48.766;9.176;2023-06-22T03:46:52;98328.50;;;22.02;89.87
49611;BME280;35515;48.766;9.176;2023-06-22T03:49:19;98332.91;;;21.98;89.81
49611;BME280;35515;48.766;9.176;2023-06-22T03:51:45;98324.63;;;22.03;89.49
49611;BME280;35515;48.766;9.176;2023-06-22T03:54:12;98322.41;;;22.05;89.17
49611;BME280;35515;48.766;9.176;2023-06-22T03:56:38;98318.09;;;21.88;90.58
49611;BME280;35515;48.766;9.176;2023-06-22T03:59:05;98320.78;;;21.99;89.89
49611;BME280;35515;48.766;9.176;2023-06-22T04:01:31;98320.16;;;22.07;89.40
49611;BME280;35515;48.766;9.176;2023-06-22T04:03:59;98323.19;;;22.11;88.77
49611;BME280;35515;48.766;9.176;2023-06-22T04:06:26;98324.88;;;22.07;89.32
49611;BME280;35515;48.766;9.176;2023-06-22T04:08:52;98330.63;;;22.15;88.89
49611;BME280;35515;48.766;9.176;2023-06-22T04:11:19;98327.06;;;22.04;89.74
49611;BME280;35515;48.766;9.176;2023-06-22T04:13:45;98322.44;;;22.00;90.09
49611;BME280;35515;48.766;9.176;2023-06-22T04:16:12;98315.25;;;21.99;90.73
49611;BME280;35515;48.766;9.176;2023-06-22T04:18:38;98314.97;;;22.00;90.32
49611;BME280;35515;48.766;9.176;2023-06-22T04:21:06;98310.81;;;22.03;90.17
49611;BME280;35515;48.766;9.176;2023-06-22T04:23:33;98314.16;;;22.00;90.34
49611;BME280;35515;48.766;9.176;2023-06-22T04:25:59;98316.88;;;22.10;89.59
49611;BME280;35515;48.766;9.176;2023-06-22T04:28:26;98304.50;;;22.02;89.96
49611;BME280;35515;48.766;9.176;2023-06-22T04:30:53;98313.00;;;22.11;89.47
49611;BME280;35515;48.766;9.176;2023-06-22T04:33:23;98305.81;;;22.15;89.31
49611;BME280;35515;48.766;9.176;2023-06-22T04:35:50;98308.03;;;22.08;89.95
49611;BME280;35515;48.766;9.176;2023-06-22T04:38:18;98303.56;;;22.17;89.10
49611;BME280;35515;48.766;9.176;2023-06-22T04:40:46;98305.28;;;22.08;89.84
49611;BME280;35515;48.766;9.176;2023-06-22T04:43:13;98306.97;;;22.04;90.33
49611;BME280;35515;48.766;9.176;2023-06-22T04:45:40;98300.34;;;22.05;89.75
49611;BME280;35515;48.766;9.176;2023-06-22T04:48:06;98300.03;;;22.12;89.15
49611;BME280;35515;48.766;9.176;2023-06-22T04:50:33;98292.03;;;22.10;89.51
49611;BME280;35515;48.766;9.176;2023-06-22T04:53:00;98293.88;;;22.20;89.23
49611;BME280;35515;48.766;9.176;2023-06-22T04:55:34;98284.38;;;22.02;90.70
49611;BME280;35515;48.766;9.176;2023-06-22T04:58:03;98282.19;;;21.94;90.28
49611;BME280;35515;48.766;9.176;2023-06-22T05:00:31;98286.91;;;21.93;90.74
49611;BME280;35515;48.766;9.176;2023-06-22T05:03:01;98287.69;;;21.99;90.30
49611;BME280;35515;48.766;9.176;2023-06-22T05:05:28;98275.56;;;21.95;91.22
49611;BME280;35515;48.766;9.176;2023-06-22T05:07:56;98280.50;;;21.98;90.03
49611;BME280;35515;48.766;9.176;2023-06-22T05:10:25;98281.66;;;21.97;90.46
49611;BME280;35515;48.766;9.176;2023-06-22T05:12:53;98288.56;;;21.94;91.29
49611;BME280;35515;48.766;9.176;2023-06-22T05:15:20;98286.66;;;21.84;91.58
49611;BME280;35515;48.766;9.176;2023-06-22T05:17:48;98274.53;;;21.85;91.38
49611;BME280;35515;48.766;9.176;2023-06-22T05:20:15;98267.44;;;21.74;92.16
49611;BME280;35515;48.766;9.176;2023-06-22T05:22:43;98269.00;;;21.85;90.89
49611;BME280;35515;48.766;9.176;2023-06-22T05:25:11;98268.81;;;21.77;91.75
49611;BME280;35515;48.766;9.176;2023-06-22T05:27:38;98270.72;;;21.76;92.16
49611;BME280;35515;48.766;9.176;2023-06-22T05:30:07;98266.81;;;21.87;91.09
49611;BME280;35515;48.766;9.176;2023-06-22T05:32:34;98256.91;;;21.81;91.41
49611;BME280;35515;48.766;9.176;2023-06-22T05:35:01;98255.81;;;21.82;91.50
49611;BME280;35515;48.766;9.176;2023-06-22T05:37:28;98256.38;;;21.79;91.78
49611;BME280;35515;48.766;9.176;2023-06-22T05:39:55;98265.69;;;21.88;90.94
49611;BME280;35515;48.766;9.176;2023-06-22T05:42:22;98263.41;;;22.01;90.57
49611;BME280;35515;48.766;9.176;2023-06-22T05:44:50;98259.47;;;22.12;88.63
49611;BME280;35515;48.766;9.176;2023-06-22T05:47:18;98254.03;;;22.02;89.52
49611;BME280;35515;48.766;9.176;2023-06-22T05:49:45;98262.22;;;22.12;88.65
49611;BME280;35515;48.766;9.176;2023-06-22T05:52:11;98262.25;;;22.07;88.83
49611;BME280;35515;48.766;9.176;2023-06-22T05:54:38;98264.97;;;22.12;88.49
49611;BME280;35515;48.766;9.176;2023-06-22T05:57:06;98260.84;;;22.10;88.86
49611;BME280;35515;48.766;9.176;2023-06-22T05:59:33;98257.59;;;22.02;89.44
49611;BME280;35515;48.766;9.176;2023-06-22T06:01:59;98261.66;;;22.15;88.07
49611;BME280;35515;48.766;9.176;2023-06-22T06:04:27;98259.16;;;22.14;88.67
49611;BME280;35515;48.766;9.176;2023-06-22T06:06:54;98258.28;;;22.24;87.72
49611;BME280;35515;48.766;9.176;2023-06-22T06:09:20;98256.66;;;22.17;87.34
49611;BME280;35515;48.766;9.176;2023-06-22T06:11:47;98238.41;;;22.21;86.84
49611;BME280;35515;48.766;9.176;2023-06-22T06:14:13;98239.75;;;22.29;85.66
49611;BME280;35515;48.766;9.176;2023-06-22T06:16:42;98247.72;;;22.31;86.03
49611;BME280;35515;48.766;9.176;2023-06-22T06:19:08;98246.19;;;22.19;86.51
49611;BME280;35515;48.766;9.176;2023-06-22T06:21:36;98244.78;;;22.22;87.64
49611;BME280;35515;48.766;9.176;2023-06-22T06:24:03;98245.00;;;22.26;86.28
49611;BME280;35515;48.766;9.176;2023-06-22T06:26:30;98243.31;;;22.30;85.80
49611;BME280;35515;48.766;9.176;2023-06-22T06:29:00;98246.06;;;22.30;86.00
49611;BME280;35515;48.766;9.176;2023-06-22T06:31:27;98245.00;;;22.26;86.36
49611;BME280;35515;48.766;9.176;2023-06-22T06:33:55;98239.72;;;22.34;85.77
49611;BME280;35515;48.766;9.176;2023-06-22T06:36:22;98244.91;;;22.41;85.51
49611;BME280;35515;48.766;9.176;2023-06-22T06:38:50;98244.97;;;22.36;85.49
49611;BME280;35515;48.766;9.176;2023-06-22T06:41:16;98250.19;;;22.32;85.43
49611;BME280;35515;48.766;9.176;2023-06-22T06:43:43;98250.47;;;22.36;85.49
49611;BME280;35515;48.766;9.176;2023-06-22T06:46:09;98241.09;;;22.37;85.30
49611;BME280;35515;48.766;9.176;2023-06-22T06:48:36;98248.72;;;22.50;84.50
49611;BME280;35515;48.766;9.176;2023-06-22T06:51:02;98241.97;;;22.62;83.51
49611;BME280;35515;48.766;9.176;2023-06-22T06:53:29;98246.34;;;22.68;83.17
49611;BME280;35515;48.766;9.176;2023-06-22T06:55:57;98247.41;;;22.72;82.81
49611;BME280;35515;48.766;9.176;2023-06-22T06:58:23;98243.56;;;22.68;83.29
49611;BME280;35515;48.766;9.176;2023-06-22T07:00:50;98244.63;;;22.72;83.02
49611;BME280;35515;48.766;9.176;2023-06-22T07:03:16;98248.81;;;22.94;80.87
49611;BME280;35515;48.766;9.176;2023-06-22T07:05:43;98247.91;;;22.79;82.11
49611;BME280;35515;48.766;9.176;2023-06-22T07:08:10;98247.31;;;22.82;82.19
49611;BME280;35515;48.766;9.176;2023-06-22T07:10:36;98242.78;;;22.92;81.35
49611;BME280;35515;48.766;9.176;2023-06-22T07:13:04;98229.78;;;22.92;80.85
49611;BME280;35515;48.766;9.176;2023-06-22T07:15:30;98228.09;;;22.96;80.75
49611;BME280;35515;48.766;9.176;2023-06-22T07:17:57;98219.78;;;22.96;81.07
49611;BME280;35515;48.766;9.176;2023-06-22T07:20:24;98220.28;;;23.03;80.36
49611;BME280;35515;48.766;9.176;2023-06-22T07:22:51;98214.41;;;23.10;79.78
49611;BME280;35515;48.766;9.176;2023-06-22T07:25:18;98211.81;;;23.19;79.32
49611;BME280;35515;48.766;9.176;2023-06-22T07:27:46;98197.00;;;23.10;79.49
49611;BME280;35515;48.766;9.176;2023-06-22T07:30:14;98202.66;;;23.24;79.07
49611;BME280;35515;48.766;9.176;2023-06-22T07:32:41;98198.78;;;23.25;78.74
49611;BME280;35515;48.766;9.176;2023-06-22T07:35:08;98193.34;;;23.38;77.99
49611;BME280;35515;48.766;9.176;2023-06-22T07:37:35;98189.47;;;23.40;78.06
49611;BME280;35515;48.766;9.176;2023-06-22T07:40:01;98174.75;;;23.44;78.02
49611;BME280;35515;48.766;9.176;2023-06-22T07:42:31;98179.59;;;23.52;77.09
49611;BME280;35515;48.766;9.176;2023-06-22T07:44:59;98177.38;;;23.54;77.20
49611;BME280;35515;48.766;9.176;2023-06-22T07:47:27;98166.00;;;23.56;77.37
49611;BME280;35515;48.766;9.176;2023-06-22T07:49:53;98171.78;;;23.60;77.08
49611;BME280;35515;48.766;9.176;2023-06-22T07:52:23;98155.41;;;23.63;76.92
49611;BME280;35515;48.766;9.176;2023-06-22T07:54:49;98136.91;;;23.78;75.94
49611;BME280;35515;48.766;9.176;2023-06-22T07:57:16;98147.25;;;23.91;75.35
49611;BME280;35515;48.766;9.176;2023-06-22T07:59:43;98151.88;;;23.96;74.60
49611;BME280;35515;48.766;9.176;2023-06-22T08:02:09;98152.28;;;23.89;74.96
49611;BME280;35515;48.766;9.176;2023-06-22T08:04:37;98151.97;;;23.91;75.07
49611;BME280;35515;48.766;9.176;2023-06-22T08:07:04;98162.03;;;24.00;74.74
49611;BME280;35515;48.766;9.176;2023-06-22T08:09:34;98165.28;;;24.21;73.50
49611;BME280;35515;48.766;9.176;2023-06-22T08:12:01;98175.94;;;24.14;73.72
49611;BME280;35515;48.766;9.176;2023-06-22T08:14:29;98185.59;;;24.31;72.33
49611;BME280;35515;48.766;9.176;2023-06-22T08:16:55;98189.88;;;24.23;72.47
49611;BME280;35515;48.766;9.176;2023-06-22T08:19:22;98184.56;;;24.27;72.76
49611;BME280;35515;48.766;9.176;2023-06-22T08:21:50;98183.97;;;24.30;72.59
49611;BME280;35515;48.766;9.176;2023-06-22T08:24:16;98191.97;;;24.31;72.60
49611;BME280;35515;48.766;9.176;2023-06-22T08:26:43;98199.28;;;24.41;71.86
49611;BME280;35515;48.766;9.176;2023-06-22T08:29:10;98205.16;;;24.53;71.04
49611;BME280;35515;48.766;9.176;2023-06-22T08:31:36;98214.66;;;24.66;69.04
49611;BME280;35515;48.766;9.176;2023-06-22T08:34:03;98215.06;;;24.74;67.89
49611;BME280;35515;48.766;9.176;2023-06-22T08:36:29;98212.91;;;24.70;66.92
49611;BME280;35515;48.766;9.176;2023-06-22T08:38:59;98217.31;;;24.72;66.92
49611;BME280;35515;48.766;9.176;2023-06-22T08:41:26;98221.63;;;24.78;66.63
49611;BME280;35515;48.766;9.176;2023-06-22T08:43:53;98216.84;;;24.83;66.57
49611;BME280;35515;48.766;9.176;2023-06-22T08:46:19;98200.72;;;24.85;67.58
49611;BME280;35515;48.766;9.176;2023-06-22T08:48:48;98195.69;;;24.87;67.67
49611;BME280;35515;48.766;9.176;2023-06-22T08:51:15;98193.41;;;24.90;67.39
49611;BME280;35515;48.766;9.176;2023-06-22T08:53:42;98196.19;;;24.90;67.82
49611;BME280;35515;48.766;9.176;2023-06-22T08:56:11;98198.16;;;25.03;66.26
49611;BME280;35515;48.766;9.176;2023-06-22T08:58:38;98193.53;;;25.12;66.39
49611;BME280;35515;48.766;9.176;2023-06-22T09:01:04;98192.19;;;25.24;65.81
49611;BME280;35515;48.766;9.176;2023-06-22T09:03:31;98194.25;;;25.32;65.60
49611;BME280;35515;48.766;9.176;2023-06-22T09:05:58;98188.19;;;25.30;66.11
49611;BME280;35515;48.766;9.176;2023-06-22T09:08:24;98198.97;;;25.31;65.66
49611;BME280;35515;48.766;9.176;2023-06-22T09:10:51;98193.34;;;25.36;65.50
49611;BME280;35515;48.766;9.176;2023-06-22T09:13:19;98179.56;;;25.31;66.43
49611;BME280;35515;48.766;9.176;2023-06-22T09:15:45;98174.19;;;25.63;64.69
49611;BME280;35515;48.766;9.176;2023-06-22T09:18:12;98187.22;;;25.62;64.80
49611;BME280;35515;48.766;9.176;2023-06-22T09:20:39;98205.41;;;25.68;65.30
49611;BME280;35515;48.766;9.176;2023-06-22T09:23:06;98218.84;;;25.75;65.28
49611;BME280;35515;48.766;9.176;2023-06-22T09:25:32;98197.56;;;25.84;64.71
49611;BME280;35515;48.766;9.176;2023-06-22T09:27:59;98195.16;;;25.92;63.38
49611;BME280;35515;48.766;9.176;2023-06-22T09:30:27;98192.59;;;25.95;62.51
49611;BME280;35515;48.766;9.176;2023-06-22T09:32:53;98183.94;;;25.97;62.47
49611;BME280;35515;48.766;9.176;2023-06-22T09:35:20;98175.50;;;26.02;62.72
49611;BME280;35515;48.766;9.176;2023-06-22T09:37:46;98168.69;;;26.08;61.84
49611;BME280;35515;48.766;9.176;2023-06-22T09:40:13;98162.38;;;26.16;61.61
49611;BME280;35515;48.766;9.176;2023-06-22T09:42:42;98159.59;;;26.16;61.68
49611;BME280;35515;48.766;9.176;2023-06-22T09:45:09;98157.34;;;26.18;61.76
49611;BME280;35515;48.766;9.176;2023-06-22T09:47:37;98162.25;;;26.22;61.80
49611;BME280;35515;48.766;9.176;2023-06-22T09:50:04;98157.34;;;26.18;61.78
49611;BME280;35515;48.766;9.176;2023-06-22T09:52:31;98151.78;;;26.18;61.64
49611;BME280;35515;48.766;9.176;2023-06-22T09:54:57;98147.25;;;26.23;62.06
49611;BME280;35515;48.766;9.176;2023-06-22T09:57:24;98128.31;;;26.25;62.48
49611;BME280;35515;48.766;9.176;2023-06-22T09:59:50;98126.53;;;26.29;61.89
49611;BME280;35515;48.766;9.176;2023-06-22T10:02:17;98125.41;;;26.30;62.54
49611;BME280;35515;48.766;9.176;2023-06-22T10:04:45;98109.91;;;26.37;61.94
49611;BME280;35515;48.766;9.176;2023-06-22T10:07:11;98110.22;;;26.36;62.11
49611;BME280;35515;48.766;9.176;2023-06-22T10:09:38;98117.66;;;26.49;62.55
49611;BME280;35515;48.766;9.176;2023-06-22T10:12:05;98108.19;;;26.50;61.95
49611;BME280;35515;48.766;9.176;2023-06-22T10:14:32;98102.50;;;26.56;61.80
49611;BME280;35515;48.766;9.176;2023-06-22T10:16:58;98096.78;;;26.61;61.07
49611;BME280;35515;48.766;9.176;2023-06-22T10:19:25;98086.63;;;26.56;61.01
49611;BME280;35515;48.766;9.176;2023-06-22T10:21:53;98098.91;;;26.64;61.28
49611;BME280;35515;48.766;9.176;2023-06-22T10:24:20;98093.88;;;26.66;61.48
49611;BME280;35515;48.766;9.176;2023-06-22T10:26:47;98092.41;;;26.68;61.24
49611;BME280;35515;48.766;9.176;2023-06-22T10:29:13;98085.91;;;26.73;60.50
49611;BME280;35515;48.766;9.176;2023-06-22T10:31:40;98082.66;;;26.80;60.82
49611;BME280;35515;48.766;9.176;2023-06-22T10:34:06;98085.16;;;26.90;60.29
49611;BME280;35515;48.766;9.176;2023-06-22T10:36:33;98079.13;;;27.14;59.16
49611;BME280;35515;48.766;9.176;2023-06-22T10:39:00;98075.72;;;27.09;59.22
49611;BME280;35515;48.766;9.176;2023-06-22T10:41:28;98074.72;;;27.13;59.37
49611;BME280;35515;48.766;9.176;2023-06-22T10:43:56;98073.44;;;27.19;59.83
49611;BME280;35515;48.766;9.176;2023-06-22T10:46:24;98062.16;;;27.25;59.23
49611;BME280;35515;48.766;9.176;2023-06-22T10:48:50;98072.31;;;27.38;57.98
49611;BME280;35515;48.766;9.176;2023-06-22T10:51:19;98072.97;;;27.44;57.26
49611;BME280;35515;48.766;9.176;2023-06-22T10:53:45;98070.53;;;27.42;56.65
49611;BME280;35515;48.766;9.176;2023-06-22T10:56:13;98066.22;;;27.36;57.08
49611;BME280;35515;48.766;9.176;2023-06-22T10:58:40;98062.81;;;27.30;57.82
49611;BME280;35515;48.766;9.176;2023-06-22T11:01:06;98065.75;;;27.34;57.96
49611;BME280;35515;48.766;9.176;2023-06-22T11:03:33;98057.41;;;27.34;58.59
49611;BME280;35515;48.766;9.176;2023-06-22T11:05:59;98068.19;;;27.35;58.61
49611;BME280;35515;48.766;9.176;2023-06-22T11:08:26;98058.88;;;27.31;59.23
49611;BME280;35515;48.766;9.176;2023-06-22T11:10:52;98060.06;;;27.39;59.13
49611;BME280;35515;48.766;9.176;2023-06-22T11:13:20;98065.59;;;27.30;59.27
49611;BME280;35515;48.766;9.176;2023-06-22T11:15:47;98065.59;;;27.30;59.75
49611;BME280;35515;48.766;9.176;2023-06-22T11:18:13;98070.34;;;27.39;59.33
49611;BME280;35515;48.766;9.176;2023-06-22T11:20:40;98070.16;;;27.35;59.15
49611;BME280;35515;48.766;9.176;2023-06-22T11:23:06;98070.34;;;27.30;59.54
49611;BME280;35515;48.766;9.176;2023-06-22T11:25:33;98065.91;;;27.29;59.76
49611;BME280;35515;48.766;9.176;2023-06-22T11:28:01;98056.09;;;27.31;59.32
49611;BME280;35515;48.766;9.176;2023-06-22T11:30:29;98057.06;;;27.27;59.45
49611;BME280;35515;48.766;9.176;2023-06-22T11:32:57;98058.03;;;27.31;58.43
49611;BME280;35515;48.766;9.176;2023-06-22T11:35:24;98068.53;;;27.34;59.08
49611;BME280;35515;48.766;9.176;2023-06-22T11:37:50;98069.00;;;27.36;58.88
49611;BME280;35515;48.766;9.176;2023-06-22T11:40:17;98059.72;;;27.41;60.12
49611;BME280;35515;48.766;9.176;2023-06-22T11:42:43;98043.38;;;27.57;58.74
49611;BME280;35515;48.766;9.176;2023-06-22T11:45:11;98050.22;;;27.68;58.49
49611;BME280;35515;48.766;9.176;2023-06-22T11:47:39;98050.22;;;27.68;58.45
49611;BME280;35515;48.766;9.176;2023-06-22T11:50:06;98037.25;;;27.72;58.68
49611;BME280;35515;48.766;9.176;2023-06-22T11:52:33;98024.66;;;27.83;58.81
49611;BME280;35515;48.766;9.176;2023-06-22T11:55:01;98033.47;;;27.85;58.97
49611;BME280;35515;48.766;9.176;2023-06-22T11:57:29;98044.28;;;27.87;59.31
49611;BME280;35515;48.766;9.176;2023-06-22T11:59:55;98053.28;;;27.84;60.07
49611;BME280;35515;48.766;9.176;2023-06-22T12:02:22;98057.72;;;27.94;58.85
49611;BME280;35515;48.766;9.176;2023-06-22T12:04:49;98059.84;;;27.88;59.35
49611;BME280;35515;48.766;9.176;2023-06-22T12:07:17;98061.13;;;27.91;59.48
49611;BME280;35515;48.766;9.176;2023-06-22T12:09:44;98062.78;;;27.92;58.42
49611;BME280;35515;48.766;9.176;2023-06-22T12:12:10;98070.84;;;27.84;58.99
49611;BME280;35515;48.766;9.176;2023-06-22T12:14:37;98059.69;;;27.84;58.62
49611;BME280;35515;48.766;9.176;2023-06-22T12:17:04;98048.69;;;27.88;58.61
49611;BME280;35515;48.766;9.176;2023-06-22T12:19:30;98039.53;;;27.88;58.64
49611;BME280;35515;48.766;9.176;2023-06-22T12:21:58;98041.00;;;27.94;57.91
49611;BME280;35515;48.766;9.176;2023-06-22T12:24:24;98041.50;;;27.87;57.78
49611;BME280;35515;48.766;9.176;2023-06-22T12:26:51;98045.09;;;27.88;58.10
49611;BME280;35515;48.766;9.176;2023-06-22T12:29:17;98044.94;;;27.93;58.41
49611;BME280;35515;48.766;9.176;2023-06-22T12:31:44;98052.78;;;27.91;58.72
49611;BME280;35515;48.766;9.176;2023-06-22T12:34:10;98059.50;;;27.90;59.61
49611;BME280;35515;48.766;9.176;2023-06-22T12:36:37;98070.00;;;27.93;58.41
49611;BME280;35515;48.766;9.176;2023-06-22T12:39:05;98063.44;;;27.89;58.76
49611;BME280;35515;48.766;9.176;2023-06-22T12:41:31;98068.22;;;27.79;59.50
49611;BME280;35515;48.766;9.176;2023-06-22T12:43:58;98061.00;;;27.78;59.30
49611;BME280;35515;48.766;9.176;2023-06-22T12:46:25;98067.72;;;27.77;59.16
49611;BME280;35515;48.766;9.176;2023-06-22T12:48:51;98076.06;;;27.77;59.64
49611;BME280;35515;48.766;9.176;2023-06-22T12:51:21;98100.31;;;27.77;59.09
49611;BME280;35515;48.766;9.176;2023-06-22T12:53:48;98099.28;;;27.81;58.53
49611;BME280;35515;48.766;9.176;2023-06-22T12:56:16;98090.63;;;28.00;58.57
49611;BME280;35515;48.766;9.176;2023-06-22T12:58:42;98093.69;;;27.99;58.74
49611;BME280;35515;48.766;9.176;2023-06-22T13:01:09;98086.34;;;27.94;58.75